sensor_id;sensor_type;location;lat;lon;timestamp;P1;durP1;ratioP1;P2;durP2;ratioP2
10761;SDS011;5433;50.862;4.320;2022-11-15T00:01:40;21.75;;;16.70;;
10761;SDS011;5433;50.862;4.320;2022-11-15T00:04:06;22.90;;;16.00;;
10761;SDS011;5433;50.862;4.320;2022-11-15T00:06:32;22.75;;;16.42;;
10761;SDS011;5433;50.862;4.320;2022-11-15T00:08:58;20.10;;;15.95;;
10761;SDS011;5433;50.862;4.320;2022-11-15T00:11:24;20.60;;;15.73;;
10761;SDS011;5433;50.862;4.320;2022-11-15T00:13:50;21.40;;;16.23;;
10761;SDS011;5433;50.862;4.320;2022-11-15T00:16:16;21.95;;;16.90;;
10761;SDS011;5433;50.862;4.320;2022-11-15T00:18:42;22.38;;;16.95;;
10761;SDS011;5433;50.862;4.320;2022-11-15T00:21:12;22.55;;;16.65;;
10761;SDS011;5433;50.862;4.320;2022-11-15T00:23:38;22.80;;;16.20;;
10761;SDS011;5433;50.862;4.320;2022-11-15T00:26:05;21.13;;;16.83;;
10761;SDS011;5433;50.862;4.320;2022-11-15T00:28:31;20.52;;;16.80;;
10761;SDS011;5433;50.862;4.320;2022-11-15T00:31:01;20.95;;;16.23;;
10761;SDS011;5433;50.862;4.320;2022-11-15T00:33:27;21.25;;;16.95;;
10761;SDS011;5433;50.862;4.320;2022-11-15T00:35:53;20.45;;;16.73;;
10761;SDS011;5433;50.862;4.320;2022-11-15T00:38:19;21.33;;;16.67;;
10761;SDS011;5433;50.862;4.320;2022-11-15T00:40:45;22.40;;;17.20;;
10761;SDS011;5433;50.862;4.320;2022-11-15T00:43:11;21.52;;;17.08;;
10761;SDS011;5433;50.862;4.320;2022-11-15T00:45:37;22.17;;;16.67;;
10761;SDS011;5433;50.862;4.320;2022-11-15T00:48:07;21.65;;;16.30;;
10761;SDS011;5433;50.862;4.320;2022-11-15T00:50:33;22.27;;;16.38;;
10761;SDS011;5433;50.862;4.320;2022-11-15T00:53:02;22.83;;;17.05;;
10761;SDS011;5433;50.862;4.320;2022-11-15T00:55:28;22.40;;;17.23;;
10761;SDS011;5433;50.862;4.320;2022-11-15T00:57:54;23.77;;;17.13;;
10761;SDS011;5433;50.862;4.320;2022-11-15T01:00:20;23.08;;;17.65;;
10761;SDS011;5433;50.862;4.320;2022-11-15T01:02:46;24.00;;;17.00;;
10761;SDS011;5433;50.862;4.320;2022-11-15T01:05:12;21.98;;;16.67;;
10761;SDS011;5433;50.862;4.320;2022-11-15T01:07:38;20.77;;;17.10;;
10761;SDS011;5433;50.862;4.320;2022-11-15T01:10:04;27.08;;;17.83;;
10761;SDS011;5433;50.862;4.320;2022-11-15T01:12:30;22.88;;;18.02;;
10761;SDS011;5433;50.862;4.320;2022-11-15T01:14:56;23.08;;;17.98;;
10761;SDS011;5433;50.862;4.320;2022-11-15T01:17:23;26.20;;;17.80;;
10761;SDS011;5433;50.862;4.320;2022-11-15T01:19:49;23.08;;;18.05;;
10761;SDS011;5433;50.862;4.320;2022-11-15T01:22:15;23.45;;;18.17;;
10761;SDS011;5433;50.862;4.320;2022-11-15T01:24:41;23.30;;;17.70;;
10761;SDS011;5433;50.862;4.320;2022-11-15T01:27:07;26.90;;;18.02;;
10761;SDS011;5433;50.862;4.320;2022-11-15T01:29:33;24.70;;;18.00;;
10761;SDS011;5433;50.862;4.320;2022-11-15T01:31:59;21.73;;;17.27;;
10761;SDS011;5433;50.862;4.320;2022-11-15T01:34:25;21.92;;;16.98;;
10761;SDS011;5433;50.862;4.320;2022-11-15T01:36:51;24.95;;;17.60;;
10761;SDS011;5433;50.862;4.320;2022-11-15T01:39:17;23.70;;;18.25;;
10761;SDS011;5433;50.862;4.320;2022-11-15T01:41:44;23.88;;;17.27;;
10761;SDS011;5433;50.862;4.320;2022-11-15T01:46:54;20.55;;;16.55;;
10761;SDS011;5433;50.862;4.320;2022-11-15T01:49:21;21.73;;;16.88;;
10761;SDS011;5433;50.862;4.320;2022-11-15T01:51:48;20.02;;;16.50;;
10761;SDS011;5433;50.862;4.320;2022-11-15T01:54:15;20.10;;;16.92;;
10761;SDS011;5433;50.862;4.320;2022-11-15T01:56:46;19.40;;;15.90;;
10761;SDS011;5433;50.862;4.320;2022-11-15T01:59:14;20.98;;;15.95;;
10761;SDS011;5433;50.862;4.320;2022-11-15T02:01:41;23.13;;;16.20;;
10761;SDS011;5433;50.862;4.320;2022-11-15T02:04:15;23.08;;;16.10;;
10761;SDS011;5433;50.862;4.320;2022-11-15T02:06:42;22.00;;;15.80;;
10761;SDS011;5433;50.862;4.320;2022-11-15T02:09:09;19.92;;;15.38;;
10761;SDS011;5433;50.862;4.320;2022-11-15T02:11:35;22.70;;;15.95;;
10761;SDS011;5433;50.862;4.320;2022-11-15T02:14:01;20.48;;;15.25;;
10761;SDS011;5433;50.862;4.320;2022-11-15T02:16:39;21.90;;;15.15;;
10761;SDS011;5433;50.862;4.320;2022-11-15T02:21:36;22.80;;;15.38;;
10761;SDS011;5433;50.862;4.320;2022-11-15T02:26:56;20.42;;;15.43;;
10761;SDS011;5433;50.862;4.320;2022-11-15T02:32:31;20.60;;;14.98;;
10761;SDS011;5433;50.862;4.320;2022-11-15T02:35:02;21.00;;;15.93;;
10761;SDS011;5433;50.862;4.320;2022-11-15T02:37:43;22.50;;;15.82;;
10761;SDS011;5433;50.862;4.320;2022-11-15T02:40:12;21.48;;;15.35;;
10761;SDS011;5433;50.862;4.320;2022-11-15T02:42:45;18.67;;;15.48;;
10761;SDS011;5433;50.862;4.320;2022-11-15T02:45:35;20.45;;;14.70;;
10761;SDS011;5433;50.862;4.320;2022-11-15T02:48:01;21.67;;;15.15;;
10761;SDS011;5433;50.862;4.320;2022-11-15T02:50:28;21.65;;;15.45;;
10761;SDS011;5433;50.862;4.320;2022-11-15T02:52:55;19.65;;;15.38;;
10761;SDS011;5433;50.862;4.320;2022-11-15T02:55:35;18.38;;;14.90;;
10761;SDS011;5433;50.862;4.320;2022-11-15T03:00:39;22.10;;;14.80;;
10761;SDS011;5433;50.862;4.320;2022-11-15T03:03:14;18.08;;;13.80;;
10761;SDS011;5433;50.862;4.320;2022-11-15T03:08:32;18.25;;;13.52;;
10761;SDS011;5433;50.862;4.320;2022-11-15T03:11:08;19.95;;;13.52;;
10761;SDS011;5433;50.862;4.320;2022-11-15T03:13:36;19.67;;;13.48;;
10761;SDS011;5433;50.862;4.320;2022-11-15T03:16:08;18.30;;;13.90;;
10761;SDS011;5433;50.862;4.320;2022-11-15T03:18:36;17.77;;;13.02;;
10761;SDS011;5433;50.862;4.320;2022-11-15T03:21:04;17.30;;;11.63;;
10761;SDS011;5433;50.862;4.320;2022-11-15T03:23:32;21.25;;;11.48;;
10761;SDS011;5433;50.862;4.320;2022-11-15T03:25:59;14.85;;;10.55;;
10761;SDS011;5433;50.862;4.320;2022-11-15T03:28:34;13.88;;;9.90;;
10761;SDS011;5433;50.862;4.320;2022-11-15T03:31:01;14.10;;;10.25;;
10761;SDS011;5433;50.862;4.320;2022-11-15T03:33:48;14.57;;;9.88;;
10761;SDS011;5433;50.862;4.320;2022-11-15T03:36:14;12.90;;;9.55;;
10761;SDS011;5433;50.862;4.320;2022-11-15T03:38:41;10.93;;;9.50;;
10761;SDS011;5433;50.862;4.320;2022-11-15T03:41:11;15.40;;;9.50;;
10761;SDS011;5433;50.862;4.320;2022-11-15T03:43:50;12.98;;;9.27;;
10761;SDS011;5433;50.862;4.320;2022-11-15T03:46:31;14.70;;;8.82;;
10761;SDS011;5433;50.862;4.320;2022-11-15T03:49:09;11.55;;;8.30;;
10761;SDS011;5433;50.862;4.320;2022-11-15T03:51:36;10.85;;;8.40;;
10761;SDS011;5433;50.862;4.320;2022-11-15T03:54:03;12.48;;;8.70;;
10761;SDS011;5433;50.862;4.320;2022-11-15T03:56:29;14.00;;;8.55;;
10761;SDS011;5433;50.862;4.320;2022-11-15T03:58:55;9.63;;;7.60;;
10761;SDS011;5433;50.862;4.320;2022-11-15T04:01:21;11.63;;;8.18;;
10761;SDS011;5433;50.862;4.320;2022-11-15T04:03:47;12.35;;;7.72;;
10761;SDS011;5433;50.862;4.320;2022-11-15T04:06:13;11.32;;;7.75;;
10761;SDS011;5433;50.862;4.320;2022-11-15T04:08:39;9.80;;;7.32;;
10761;SDS011;5433;50.862;4.320;2022-11-15T04:11:05;8.82;;;6.88;;
10761;SDS011;5433;50.862;4.320;2022-11-15T04:13:31;10.20;;;7.55;;
10761;SDS011;5433;50.862;4.320;2022-11-15T04:15:58;10.90;;;7.30;;
10761;SDS011;5433;50.862;4.320;2022-11-15T04:18:24;12.05;;;7.30;;
10761;SDS011;5433;50.862;4.320;2022-11-15T04:20:50;10.60;;;7.35;;
10761;SDS011;5433;50.862;4.320;2022-11-15T04:23:35;11.85;;;8.00;;
10761;SDS011;5433;50.862;4.320;2022-11-15T04:26:20;11.00;;;7.13;;
10761;SDS011;5433;50.862;4.320;2022-11-15T04:28:47;12.55;;;7.10;;
10761;SDS011;5433;50.862;4.320;2022-11-15T04:31:31;9.73;;;6.95;;
10761;SDS011;5433;50.862;4.320;2022-11-15T04:33:57;10.20;;;6.60;;
10761;SDS011;5433;50.862;4.320;2022-11-15T04:36:24;11.25;;;6.43;;
10761;SDS011;5433;50.862;4.320;2022-11-15T04:39:09;10.70;;;6.30;;
10761;SDS011;5433;50.862;4.320;2022-11-15T04:41:35;11.98;;;8.18;;
10761;SDS011;5433;50.862;4.320;2022-11-15T04:44:01;8.88;;;6.30;;
10761;SDS011;5433;50.862;4.320;2022-11-15T04:46:27;7.47;;;5.57;;
10761;SDS011;5433;50.862;4.320;2022-11-15T04:48:53;9.18;;;6.03;;
10761;SDS011;5433;50.862;4.320;2022-11-15T04:51:20;10.00;;;6.18;;
10761;SDS011;5433;50.862;4.320;2022-11-15T04:53:46;9.45;;;5.40;;
10761;SDS011;5433;50.862;4.320;2022-11-15T04:56:12;8.90;;;5.90;;
10761;SDS011;5433;50.862;4.320;2022-11-15T04:58:38;9.65;;;5.35;;
10761;SDS011;5433;50.862;4.320;2022-11-15T05:01:07;11.57;;;5.85;;
10761;SDS011;5433;50.862;4.320;2022-11-15T05:03:33;8.35;;;5.22;;
10761;SDS011;5433;50.862;4.320;2022-11-15T05:06:18;6.32;;;5.20;;
10761;SDS011;5433;50.862;4.320;2022-11-15T05:08:44;7.80;;;5.55;;
10761;SDS011;5433;50.862;4.320;2022-11-15T05:11:10;7.50;;;5.40;;
10761;SDS011;5433;50.862;4.320;2022-11-15T05:13:36;6.05;;;5.15;;
10761;SDS011;5433;50.862;4.320;2022-11-15T05:16:02;8.65;;;5.38;;
10761;SDS011;5433;50.862;4.320;2022-11-15T05:18:28;9.98;;;5.32;;
10761;SDS011;5433;50.862;4.320;2022-11-15T05:20:54;7.82;;;5.50;;
10761;SDS011;5433;50.862;4.320;2022-11-15T05:23:20;8.65;;;5.15;;
10761;SDS011;5433;50.862;4.320;2022-11-15T05:25:46;8.73;;;5.50;;
10761;SDS011;5433;50.862;4.320;2022-11-15T05:28:12;9.35;;;4.90;;
10761;SDS011;5433;50.862;4.320;2022-11-15T05:30:38;9.02;;;5.22;;
10761;SDS011;5433;50.862;4.320;2022-11-15T05:33:04;10.23;;;4.93;;
10761;SDS011;5433;50.862;4.320;2022-11-15T05:35:32;12.13;;;5.25;;
10761;SDS011;5433;50.862;4.320;2022-11-15T05:38:00;7.78;;;4.97;;
10761;SDS011;5433;50.862;4.320;2022-11-15T05:40:26;9.10;;;5.07;;
10761;SDS011;5433;50.862;4.320;2022-11-15T05:42:53;7.93;;;4.57;;
10761;SDS011;5433;50.862;4.320;2022-11-15T05:45:19;6.78;;;4.13;;
10761;SDS011;5433;50.862;4.320;2022-11-15T05:47:45;8.30;;;4.65;;
10761;SDS011;5433;50.862;4.320;2022-11-15T05:50:13;8.65;;;4.80;;
10761;SDS011;5433;50.862;4.320;2022-11-15T05:52:40;7.80;;;4.20;;
10761;SDS011;5433;50.862;4.320;2022-11-15T05:55:06;7.75;;;4.80;;
10761;SDS011;5433;50.862;4.320;2022-11-15T05:57:33;7.80;;;4.47;;
10761;SDS011;5433;50.862;4.320;2022-11-15T05:59:59;6.72;;;4.25;;
10761;SDS011;5433;50.862;4.320;2022-11-15T06:02:25;7.38;;;4.70;;
10761;SDS011;5433;50.862;4.320;2022-11-15T06:04:51;8.02;;;4.60;;
10761;SDS011;5433;50.862;4.320;2022-11-15T06:07:17;9.18;;;4.97;;
10761;SDS011;5433;50.862;4.320;2022-11-15T06:09:43;7.00;;;4.38;;
10761;SDS011;5433;50.862;4.320;2022-11-15T06:12:09;11.90;;;4.55;;
10761;SDS011;5433;50.862;4.320;2022-11-15T06:14:35;7.68;;;4.38;;
10761;SDS011;5433;50.862;4.320;2022-11-15T06:17:01;6.45;;;4.47;;
10761;SDS011;5433;50.862;4.320;2022-11-15T06:19:27;10.10;;;5.13;;
10761;SDS011;5433;50.862;4.320;2022-11-15T06:21:57;8.23;;;4.57;;
10761;SDS011;5433;50.862;4.320;2022-11-15T06:24:23;8.10;;;4.50;;
10761;SDS011;5433;50.862;4.320;2022-11-15T06:26:49;8.63;;;5.07;;
10761;SDS011;5433;50.862;4.320;2022-11-15T06:29:15;6.00;;;4.32;;
10761;SDS011;5433;50.862;4.320;2022-11-15T06:31:41;7.90;;;4.50;;
10761;SDS011;5433;50.862;4.320;2022-11-15T06:34:07;9.18;;;4.78;;
10761;SDS011;5433;50.862;4.320;2022-11-15T06:36:34;6.65;;;4.32;;
10761;SDS011;5433;50.862;4.320;2022-11-15T06:39:00;9.35;;;5.10;;
10761;SDS011;5433;50.862;4.320;2022-11-15T06:41:26;8.10;;;4.85;;
10761;SDS011;5433;50.862;4.320;2022-11-15T06:43:52;7.82;;;4.72;;
10761;SDS011;5433;50.862;4.320;2022-11-15T06:46:18;9.43;;;4.68;;
10761;SDS011;5433;50.862;4.320;2022-11-15T06:48:44;9.20;;;4.72;;
10761;SDS011;5433;50.862;4.320;2022-11-15T06:51:10;6.90;;;4.70;;
10761;SDS011;5433;50.862;4.320;2022-11-15T06:53:36;11.00;;;4.90;;
10761;SDS011;5433;50.862;4.320;2022-11-15T06:56:03;10.30;;;4.93;;
10761;SDS011;5433;50.862;4.320;2022-11-15T06:58:30;7.07;;;4.65;;
10761;SDS011;5433;50.862;4.320;2022-11-15T07:01:14;8.70;;;4.57;;
10761;SDS011;5433;50.862;4.320;2022-11-15T07:03:41;8.55;;;4.38;;
10761;SDS011;5433;50.862;4.320;2022-11-15T07:06:08;11.23;;;5.00;;
10761;SDS011;5433;50.862;4.320;2022-11-15T07:08:34;10.70;;;5.00;;
10761;SDS011;5433;50.862;4.320;2022-11-15T07:11:02;6.63;;;5.03;;
10761;SDS011;5433;50.862;4.320;2022-11-15T07:13:29;9.18;;;5.28;;
10761;SDS011;5433;50.862;4.320;2022-11-15T07:15:57;9.07;;;5.25;;
10761;SDS011;5433;50.862;4.320;2022-11-15T07:18:24;9.13;;;4.68;;
10761;SDS011;5433;50.862;4.320;2022-11-15T07:20:52;7.55;;;4.50;;
10761;SDS011;5433;50.862;4.320;2022-11-15T07:23:18;8.27;;;5.00;;
10761;SDS011;5433;50.862;4.320;2022-11-15T07:25:44;9.77;;;4.72;;
10761;SDS011;5433;50.862;4.320;2022-11-15T07:28:10;11.15;;;4.95;;
10761;SDS011;5433;50.862;4.320;2022-11-15T07:30:36;8.15;;;4.38;;
10761;SDS011;5433;50.862;4.320;2022-11-15T07:33:02;7.22;;;4.38;;
10761;SDS011;5433;50.862;4.320;2022-11-15T07:35:28;6.40;;;4.20;;
10761;SDS011;5433;50.862;4.320;2022-11-15T07:37:55;8.10;;;4.15;;
10761;SDS011;5433;50.862;4.320;2022-11-15T07:40:21;6.03;;;4.00;;
10761;SDS011;5433;50.862;4.320;2022-11-15T07:42:47;8.05;;;4.43;;
10761;SDS011;5433;50.862;4.320;2022-11-15T07:45:21;4.72;;;3.67;;
10761;SDS011;5433;50.862;4.320;2022-11-15T07:47:48;6.15;;;4.07;;
10761;SDS011;5433;50.862;4.320;2022-11-15T07:50:14;5.25;;;3.83;;
10761;SDS011;5433;50.862;4.320;2022-11-15T07:52:40;6.47;;;3.50;;
10761;SDS011;5433;50.862;4.320;2022-11-15T07:55:09;7.72;;;4.05;;
10761;SDS011;5433;50.862;4.320;2022-11-15T07:57:35;7.68;;;3.80;;
10761;SDS011;5433;50.862;4.320;2022-11-15T08:00:02;5.18;;;3.53;;
10761;SDS011;5433;50.862;4.320;2022-11-15T08:02:28;4.85;;;3.58;;
10761;SDS011;5433;50.862;4.320;2022-11-15T08:04:54;5.88;;;3.53;;
10761;SDS011;5433;50.862;4.320;2022-11-15T08:07:20;5.75;;;3.25;;
10761;SDS011;5433;50.862;4.320;2022-11-15T08:09:46;10.57;;;3.50;;
10761;SDS011;5433;50.862;4.320;2022-11-15T08:12:12;7.53;;;3.78;;
10761;SDS011;5433;50.862;4.320;2022-11-15T08:14:38;7.10;;;3.90;;
10761;SDS011;5433;50.862;4.320;2022-11-15T08:17:06;9.32;;;3.97;;
10761;SDS011;5433;50.862;4.320;2022-11-15T08:19:32;6.43;;;3.20;;
10761;SDS011;5433;50.862;4.320;2022-11-15T08:21:58;5.68;;;3.10;;
10761;SDS011;5433;50.862;4.320;2022-11-15T08:24:24;5.78;;;3.17;;
10761;SDS011;5433;50.862;4.320;2022-11-15T08:26:50;7.07;;;3.00;;
10761;SDS011;5433;50.862;4.320;2022-11-15T08:29:16;6.22;;;2.75;;
10761;SDS011;5433;50.862;4.320;2022-11-15T08:31:43;5.00;;;2.90;;
10761;SDS011;5433;50.862;4.320;2022-11-15T08:34:09;6.32;;;2.88;;
10761;SDS011;5433;50.862;4.320;2022-11-15T08:36:35;5.70;;;2.78;;
10761;SDS011;5433;50.862;4.320;2022-11-15T08:39:01;7.30;;;2.80;;
10761;SDS011;5433;50.862;4.320;2022-11-15T08:41:35;6.20;;;3.03;;
10761;SDS011;5433;50.862;4.320;2022-11-15T08:44:01;5.63;;;2.92;;
10761;SDS011;5433;50.862;4.320;2022-11-15T08:46:27;6.85;;;2.80;;
10761;SDS011;5433;50.862;4.320;2022-11-15T08:48:54;8.00;;;2.80;;
10761;SDS011;5433;50.862;4.320;2022-11-15T08:51:20;5.57;;;2.85;;
10761;SDS011;5433;50.862;4.320;2022-11-15T08:53:46;5.05;;;2.22;;
10761;SDS011;5433;50.862;4.320;2022-11-15T08:56:13;5.88;;;2.28;;
10761;SDS011;5433;50.862;4.320;2022-11-15T08:58:40;5.45;;;1.92;;
10761;SDS011;5433;50.862;4.320;2022-11-15T09:01:13;5.40;;;2.15;;
10761;SDS011;5433;50.862;4.320;2022-11-15T09:03:40;4.10;;;2.15;;
10761;SDS011;5433;50.862;4.320;2022-11-15T09:06:06;3.15;;;1.77;;
10761;SDS011;5433;50.862;4.320;2022-11-15T09:08:32;8.82;;;2.25;;
10761;SDS011;5433;50.862;4.320;2022-11-15T09:11:02;6.30;;;2.15;;
10761;SDS011;5433;50.862;4.320;2022-11-15T09:13:28;6.65;;;2.25;;
10761;SDS011;5433;50.862;4.320;2022-11-15T09:15:57;7.70;;;2.17;;
10761;SDS011;5433;50.862;4.320;2022-11-15T09:18:23;6.03;;;2.20;;
10761;SDS011;5433;50.862;4.320;2022-11-15T09:20:49;6.45;;;1.98;;
10761;SDS011;5433;50.862;4.320;2022-11-15T09:23:15;6.85;;;2.00;;
10761;SDS011;5433;50.862;4.320;2022-11-15T09:25:41;4.25;;;1.50;;
10761;SDS011;5433;50.862;4.320;2022-11-15T09:28:08;5.55;;;1.80;;
10761;SDS011;5433;50.862;4.320;2022-11-15T09:30:34;4.38;;;1.92;;
10761;SDS011;5433;50.862;4.320;2022-11-15T09:33:06;5.55;;;1.90;;
10761;SDS011;5433;50.862;4.320;2022-11-15T09:35:32;4.80;;;1.83;;
10761;SDS011;5433;50.862;4.320;2022-11-15T09:37:58;8.10;;;1.70;;
10761;SDS011;5433;50.862;4.320;2022-11-15T09:40:24;5.00;;;2.00;;
10761;SDS011;5433;50.862;4.320;2022-11-15T09:43:10;5.22;;;1.80;;
10761;SDS011;5433;50.862;4.320;2022-11-15T09:51:01;5.30;;;1.60;;
10761;SDS011;5433;50.862;4.320;2022-11-15T09:53:34;17.08;;;2.85;;
10761;SDS011;5433;50.862;4.320;2022-11-15T09:56:04;5.28;;;1.73;;
10761;SDS011;5433;50.862;4.320;2022-11-15T10:01:17;14.10;;;2.30;;
10761;SDS011;5433;50.862;4.320;2022-11-15T10:03:44;6.15;;;1.50;;
10761;SDS011;5433;50.862;4.320;2022-11-15T10:06:23;5.43;;;1.70;;
10761;SDS011;5433;50.862;4.320;2022-11-15T10:08:55;4.63;;;1.75;;
10761;SDS011;5433;50.862;4.320;2022-11-15T10:11:27;4.93;;;1.48;;
10761;SDS011;5433;50.862;4.320;2022-11-15T10:13:56;4.80;;;1.60;;
10761;SDS011;5433;50.862;4.320;2022-11-15T10:16:36;4.70;;;1.60;;
10761;SDS011;5433;50.862;4.320;2022-11-15T10:24:37;3.33;;;1.38;;
10761;SDS011;5433;50.862;4.320;2022-11-15T10:27:15;3.90;;;1.70;;
10761;SDS011;5433;50.862;4.320;2022-11-15T10:29:42;6.38;;;1.73;;
10761;SDS011;5433;50.862;4.320;2022-11-15T10:32:10;16.95;;;2.03;;
10761;SDS011;5433;50.862;4.320;2022-11-15T10:34:36;10.00;;;1.50;;
10761;SDS011;5433;50.862;4.320;2022-11-15T10:37:03;6.53;;;1.38;;
10761;SDS011;5433;50.862;4.320;2022-11-15T10:39:29;11.18;;;1.90;;
10761;SDS011;5433;50.862;4.320;2022-11-15T10:41:58;4.80;;;1.33;;
10761;SDS011;5433;50.862;4.320;2022-11-15T10:44:43;4.90;;;1.40;;
10761;SDS011;5433;50.862;4.320;2022-11-15T10:47:29;7.32;;;1.48;;
10761;SDS011;5433;50.862;4.320;2022-11-15T10:52:22;17.33;;;2.50;;
10761;SDS011;5433;50.862;4.320;2022-11-15T10:57:26;9.90;;;1.52;;
10761;SDS011;5433;50.862;4.320;2022-11-15T11:00:07;5.68;;;1.50;;
10761;SDS011;5433;50.862;4.320;2022-11-15T11:02:58;7.10;;;1.48;;
10761;SDS011;5433;50.862;4.320;2022-11-15T11:07:59;4.75;;;1.55;;
10761;SDS011;5433;50.862;4.320;2022-11-15T11:10:26;3.13;;;1.25;;
10761;SDS011;5433;50.862;4.320;2022-11-15T11:12:53;5.80;;;1.80;;
10761;SDS011;5433;50.862;4.320;2022-11-15T11:15:19;5.63;;;1.58;;
10761;SDS011;5433;50.862;4.320;2022-11-15T11:20:22;3.95;;;1.50;;
10761;SDS011;5433;50.862;4.320;2022-11-15T11:38:41;3.33;;;1.40;;
10761;SDS011;5433;50.862;4.320;2022-11-15T11:49:02;5.05;;;1.50;;
10761;SDS011;5433;50.862;4.320;2022-11-15T11:51:34;4.65;;;1.40;;
10761;SDS011;5433;50.862;4.320;2022-11-15T11:54:13;3.85;;;1.13;;
10761;SDS011;5433;50.862;4.320;2022-11-15T11:56:41;4.53;;;1.27;;
10761;SDS011;5433;50.862;4.320;2022-11-15T11:59:21;4.80;;;1.38;;
10761;SDS011;5433;50.862;4.320;2022-11-15T12:01:47;4.18;;;1.20;;
10761;SDS011;5433;50.862;4.320;2022-11-15T12:09:16;3.47;;;1.10;;
10761;SDS011;5433;50.862;4.320;2022-11-15T12:14:24;4.53;;;1.20;;
10761;SDS011;5433;50.862;4.320;2022-11-15T12:16:50;5.45;;;1.20;;
10761;SDS011;5433;50.862;4.320;2022-11-15T12:19:16;4.00;;;1.40;;
10761;SDS011;5433;50.862;4.320;2022-11-15T12:24:25;2.47;;;1.50;;
10761;SDS011;5433;50.862;4.320;2022-11-15T12:26:56;3.17;;;1.20;;
10761;SDS011;5433;50.862;4.320;2022-11-15T12:31:58;5.53;;;1.42;;
10761;SDS011;5433;50.862;4.320;2022-11-15T12:36:55;4.70;;;1.70;;
10761;SDS011;5433;50.862;4.320;2022-11-15T12:39:21;5.78;;;1.77;;
10761;SDS011;5433;50.862;4.320;2022-11-15T12:47:02;5.13;;;2.30;;
10761;SDS011;5433;50.862;4.320;2022-11-15T13:02:19;3.58;;;1.83;;
10761;SDS011;5433;50.862;4.320;2022-11-15T13:04:46;4.80;;;2.03;;
10761;SDS011;5433;50.862;4.320;2022-11-15T13:09:57;4.18;;;1.90;;
10761;SDS011;5433;50.862;4.320;2022-11-15T13:19:45;2.63;;;1.30;;
10761;SDS011;5433;50.862;4.320;2022-11-15T13:22:12;3.17;;;1.38;;
10761;SDS011;5433;50.862;4.320;2022-11-15T13:24:57;4.97;;;1.52;;
10761;SDS011;5433;50.862;4.320;2022-11-15T13:27:23;2.88;;;1.30;;
10761;SDS011;5433;50.862;4.320;2022-11-15T13:29:51;2.47;;;1.25;;
10761;SDS011;5433;50.862;4.320;2022-11-15T13:32:18;4.13;;;1.50;;
10761;SDS011;5433;50.862;4.320;2022-11-15T13:34:45;2.22;;;1.30;;
10761;SDS011;5433;50.862;4.320;2022-11-15T13:37:26;3.72;;;1.65;;
10761;SDS011;5433;50.862;4.320;2022-11-15T13:39:53;4.53;;;1.50;;
10761;SDS011;5433;50.862;4.320;2022-11-15T13:42:20;1.45;;;1.17;;
10761;SDS011;5433;50.862;4.320;2022-11-15T13:44:59;4.78;;;1.33;;
10761;SDS011;5433;50.862;4.320;2022-11-15T13:47:26;3.17;;;1.42;;
10761;SDS011;5433;50.862;4.320;2022-11-15T13:49:53;3.95;;;1.63;;
10761;SDS011;5433;50.862;4.320;2022-11-15T13:52:22;3.25;;;1.67;;
10761;SDS011;5433;50.862;4.320;2022-11-15T13:54:55;2.97;;;1.50;;
10761;SDS011;5433;50.862;4.320;2022-11-15T13:57:24;3.05;;;1.52;;
10761;SDS011;5433;50.862;4.320;2022-11-15T13:59:53;2.92;;;1.35;;
10761;SDS011;5433;50.862;4.320;2022-11-15T14:02:27;3.17;;;1.70;;
10761;SDS011;5433;50.862;4.320;2022-11-15T14:07:27;3.60;;;1.55;;
10761;SDS011;5433;50.862;4.320;2022-11-15T14:09:53;1.85;;;1.30;;
10761;SDS011;5433;50.862;4.320;2022-11-15T14:12:49;4.15;;;1.30;;
10761;SDS011;5433;50.862;4.320;2022-11-15T14:17:51;2.92;;;1.40;;
10761;SDS011;5433;50.862;4.320;2022-11-15T14:23:04;2.83;;;1.60;;
10761;SDS011;5433;50.862;4.320;2022-11-15T14:25:33;2.85;;;1.50;;
10761;SDS011;5433;50.862;4.320;2022-11-15T14:30:35;1.63;;;1.35;;
10761;SDS011;5433;50.862;4.320;2022-11-15T14:33:01;3.08;;;1.60;;
10761;SDS011;5433;50.862;4.320;2022-11-15T14:35:27;3.83;;;1.80;;
10761;SDS011;5433;50.862;4.320;2022-11-15T14:37:54;2.55;;;1.50;;
10761;SDS011;5433;50.862;4.320;2022-11-15T14:40:20;3.13;;;1.77;;
10761;SDS011;5433;50.862;4.320;2022-11-15T14:42:47;2.53;;;1.75;;
10761;SDS011;5433;50.862;4.320;2022-11-15T14:45:15;1.95;;;1.52;;
10761;SDS011;5433;50.862;4.320;2022-11-15T14:47:41;2.58;;;1.60;;
10761;SDS011;5433;50.862;4.320;2022-11-15T14:50:12;3.47;;;1.70;;
10761;SDS011;5433;50.862;4.320;2022-11-15T14:52:38;3.72;;;1.60;;
10761;SDS011;5433;50.862;4.320;2022-11-15T14:55:10;4.25;;;1.80;;
10761;SDS011;5433;50.862;4.320;2022-11-15T14:57:39;3.05;;;1.80;;
10761;SDS011;5433;50.862;4.320;2022-11-15T15:00:06;2.95;;;1.83;;
10761;SDS011;5433;50.862;4.320;2022-11-15T15:02:33;4.53;;;2.10;;
10761;SDS011;5433;50.862;4.320;2022-11-15T15:05:19;4.25;;;1.90;;
10761;SDS011;5433;50.862;4.320;2022-11-15T15:07:47;4.80;;;2.50;;
10761;SDS011;5433;50.862;4.320;2022-11-15T15:10:21;2.92;;;2.20;;
10761;SDS011;5433;50.862;4.320;2022-11-15T15:12:48;3.33;;;2.08;;
10761;SDS011;5433;50.862;4.320;2022-11-15T15:15:15;5.45;;;2.47;;
10761;SDS011;5433;50.862;4.320;2022-11-15T15:17:42;4.60;;;2.33;;
10761;SDS011;5433;50.862;4.320;2022-11-15T15:20:10;3.38;;;2.25;;
10761;SDS011;5433;50.862;4.320;2022-11-15T15:22:36;3.00;;;2.15;;
10761;SDS011;5433;50.862;4.320;2022-11-15T15:25:03;2.85;;;1.92;;
10761;SDS011;5433;50.862;4.320;2022-11-15T15:27:29;3.05;;;2.15;;
10761;SDS011;5433;50.862;4.320;2022-11-15T15:29:55;3.63;;;2.38;;
10761;SDS011;5433;50.862;4.320;2022-11-15T15:32:21;5.22;;;2.50;;
10761;SDS011;5433;50.862;4.320;2022-11-15T15:34:47;4.15;;;2.45;;
10761;SDS011;5433;50.862;4.320;2022-11-15T15:37:23;3.22;;;2.40;;
10761;SDS011;5433;50.862;4.320;2022-11-15T15:39:53;3.85;;;2.25;;
10761;SDS011;5433;50.862;4.320;2022-11-15T15:48:40;4.45;;;2.85;;
10761;SDS011;5433;50.862;4.320;2022-11-15T15:51:06;3.25;;;2.70;;
10761;SDS011;5433;50.862;4.320;2022-11-15T15:53:32;4.80;;;2.83;;
10761;SDS011;5433;50.862;4.320;2022-11-15T15:55:59;3.17;;;2.60;;
10761;SDS011;5433;50.862;4.320;2022-11-15T15:58:25;3.72;;;2.50;;
10761;SDS011;5433;50.862;4.320;2022-11-15T16:00:51;3.80;;;2.95;;
10761;SDS011;5433;50.862;4.320;2022-11-15T16:03:17;3.50;;;3.00;;
10761;SDS011;5433;50.862;4.320;2022-11-15T16:05:43;6.05;;;2.83;;
10761;SDS011;5433;50.862;4.320;2022-11-15T16:08:16;4.18;;;3.25;;
10761;SDS011;5433;50.862;4.320;2022-11-15T16:10:43;4.97;;;3.28;;
10761;SDS011;5433;50.862;4.320;2022-11-15T16:13:09;4.43;;;2.97;;
10761;SDS011;5433;50.862;4.320;2022-11-15T16:15:35;3.42;;;3.00;;
10761;SDS011;5433;50.862;4.320;2022-11-15T16:18:01;5.03;;;3.28;;
10761;SDS011;5433;50.862;4.320;2022-11-15T16:20:31;4.55;;;2.90;;
10761;SDS011;5433;50.862;4.320;2022-11-15T16:22:57;4.25;;;2.65;;
10761;SDS011;5433;50.862;4.320;2022-11-15T16:25:26;4.25;;;3.15;;
10761;SDS011;5433;50.862;4.320;2022-11-15T16:27:52;6.07;;;3.40;;
10761;SDS011;5433;50.862;4.320;2022-11-15T16:30:20;4.43;;;3.40;;
10761;SDS011;5433;50.862;4.320;2022-11-15T16:32:46;4.05;;;3.28;;
10761;SDS011;5433;50.862;4.320;2022-11-15T16:35:12;5.43;;;3.60;;
10761;SDS011;5433;50.862;4.320;2022-11-15T16:37:38;4.10;;;3.05;;
10761;SDS011;5433;50.862;4.320;2022-11-15T16:40:10;4.47;;;3.08;;
10761;SDS011;5433;50.862;4.320;2022-11-15T16:42:42;4.00;;;3.60;;
10761;SDS011;5433;50.862;4.320;2022-11-15T16:45:10;4.10;;;3.30;;
10761;SDS011;5433;50.862;4.320;2022-11-15T16:47:39;4.75;;;3.40;;
10761;SDS011;5433;50.862;4.320;2022-11-15T16:50:22;3.80;;;3.40;;
10761;SDS011;5433;50.862;4.320;2022-11-15T16:55:21;4.35;;;3.17;;
10761;SDS011;5433;50.862;4.320;2022-11-15T16:57:48;3.33;;;3.03;;
10761;SDS011;5433;50.862;4.320;2022-11-15T17:00:14;5.53;;;3.50;;
10761;SDS011;5433;50.862;4.320;2022-11-15T17:02:50;5.68;;;3.30;;
10761;SDS011;5433;50.862;4.320;2022-11-15T17:05:17;3.90;;;3.60;;
10761;SDS011;5433;50.862;4.320;2022-11-15T17:07:45;4.88;;;3.85;;